Time;durP1;ratioP1;P1;durP2;ratioP2;P2;SDS_P1;SDS_P2;PMS_P1;PMS_P2;Temp;Humidity;BMP_temperature;BMP_pressure;BME280_temperature;BME280_humidity;BME280_pressure;Samples;Min_cycle;Max_cycle;Signal;HPM_P1;HPM_P2
2022/11/15 00:00:58;;;;;;;8.10;5.73;;;12.40;92.10;;;12.83;58.87;98472.16;4957994;28;124580;-74
2022/11/15 00:03:27;;;;;;;7.40;4.80;;;12.30;92.00;;;12.85;58.69;98473.81;4952162;28;123887;-73
2022/11/15 00:05:54;;;;;;;5.70;3.93;;;12.40;92.10;;;12.83;58.80;98476.91;4963635;28;114366;-73
2022/11/15 00:08:21;;;;;;;6.83;4.10;;;12.30;92.10;;;12.84;59.00;98470.22;4953917;28;115577;-73
2022/11/15 00:10:55;;;;;;;4.30;3.67;;;11.00;91.50;;;12.84;58.92;98472.97;4952206;28;124421;-73
2022/11/15 00:13:22;;;;;;;4.83;3.43;;;12.40;92.10;;;12.83;58.95;98466.63;4978463;28;121586;-72
2022/11/15 00:15:49;;;;;;;4.07;3.20;;;12.40;92.50;;;12.83;59.05;98465.81;4955753;28;115540;-73
2022/11/15 00:18:17;;;;;;;7.63;3.57;;;12.30;92.10;;;12.81;59.07;98474.50;4959030;28;114878;-72
2022/11/15 00:20:43;;;;;;;6.27;3.60;;;12.30;92.10;;;12.81;59.01;98468.94;4952175;28;123921;-72
2022/11/15 00:23:11;;;;;;;3.90;2.77;;;12.30;92.20;;;12.83;59.11;98466.63;4961037;28;123711;-72
2022/11/15 00:25:37;;;;;;;5.40;3.13;;;12.30;92.20;;;12.83;59.08;98469.41;4964355;28;114346;-73
2022/11/15 00:28:04;;;;;;;4.23;3.03;;;12.30;92.20;;;12.85;59.12;98468.28;4963658;28;114331;-72
2022/11/15 00:30:30;;;;;;;8.10;3.30;;;12.30;92.20;;;12.86;58.95;98472.66;4966541;28;123919;-72
2022/11/15 00:33:05;;;;;;;8.50;3.10;;;12.40;92.30;;;12.86;59.04;98456.81;4986580;28;123844;-73
2022/11/15 00:35:33;;;;;;;5.10;2.70;;;12.40;92.30;;;12.86;58.85;98462.38;4956671;28;114319;-72
2022/11/15 00:38:01;;;;;;;14.07;4.80;;;12.30;92.10;;;12.88;58.17;98462.06;4961965;28;113700;-72
2022/11/15 00:40:28;;;;;;;3.80;2.60;;;12.40;92.00;;;12.89;58.27;98455.34;4952809;28;124111;-72
2022/11/15 00:42:55;;;;;;;2.93;2.33;;;12.40;91.90;;;12.90;58.04;98451.44;4952714;28;123673;-72
2022/11/15 00:45:21;;;;;;;5.07;2.80;;;12.40;91.80;;;12.90;58.25;98443.94;4995529;28;115481;-72
2022/11/15 00:48:01;;;;;;;4.10;2.63;;;12.40;91.80;;;12.92;57.89;98446.34;4969317;28;113810;-72
2022/11/15 00:50:30;;;;;;;3.40;2.40;;;12.40;91.70;;;12.91;57.78;98441.97;4945323;28;124461;-75
2022/11/15 00:52:56;;;;;;;3.77;2.33;;;12.40;91.60;;;12.92;57.69;98440.81;4946663;28;123353;-73
2022/11/15 00:55:22;;;;;;;3.47;2.43;;;12.40;91.60;;;12.93;57.43;98443.25;4946480;28;114135;-74
2022/11/15 00:57:49;;;;;;;4.30;2.47;;;12.60;91.60;;;12.94;57.22;98438.50;4944956;28;114286;-73
2022/11/15 01:00:16;;;;;;;4.30;2.00;;;12.40;91.50;;;12.96;57.30;98441.78;4945712;28;123989;-73
2022/11/15 01:02:43;;;;;;;2.90;2.60;;;12.40;91.40;;;12.97;57.10;98429.50;4944987;28;123486;-72
2022/11/15 01:05:12;;;;;;;4.03;2.20;;;12.50;91.30;;;12.97;56.93;98433.09;4946441;28;115690;-72
2022/11/15 01:07:38;;;;;;;2.73;2.13;;;12.50;91.30;;;12.98;56.82;98428.38;4946729;28;115042;-72
2022/11/15 01:10:06;;;;;;;3.10;2.43;;;12.50;91.20;;;12.98;56.74;98434.75;4950676;28;124063;-72
2022/11/15 01:12:32;;;;;;;4.30;3.00;;;12.50;91.10;;;12.98;56.67;98429.19;4950831;28;122949;-72
2022/11/15 01:14:59;;;;;;;2.23;2.03;;;12.50;91.10;;;12.99;56.49;98419.72;4931851;28;113059;-73
2022/11/15 01:17:25;;;;;;;2.60;2.20;;;12.50;91.00;;;13.00;56.71;98421.34;4924383;28;112958;-72
2022/11/15 01:19:52;;;;;;;3.07;2.00;;;12.50;91.00;;;12.99;56.74;98419.72;4959317;28;123772;-73
2022/11/15 01:22:19;;;;;;;3.17;2.33;;;12.50;91.00;;;13.00;56.69;98415.81;4940564;28;122773;-73
2022/11/15 01:24:45;;;;;;;4.57;2.50;;;12.50;91.00;;;12.98;56.82;98420.06;4942619;28;114337;-72
2022/11/15 01:27:11;;;;;;;4.43;2.40;;;12.50;91.10;;;12.97;56.88;98421.19;4945376;28;114061;-72
2022/11/15 01:29:38;;;;;;;4.07;2.70;;;12.60;91.10;;;12.94;57.20;98416.34;4935978;28;125233;-72
2022/11/15 01:32:04;;;;;;;6.10;2.63;;;12.50;91.20;;;12.92;57.20;98418.63;4943488;28;123770;-72
2022/11/15 01:34:31;;;;;;;5.83;2.77;;;12.40;91.10;;;12.91;57.10;98428.09;4942596;28;115750;-72
2022/11/15 01:36:57;;;;;;;3.53;2.30;;;12.40;91.20;;;12.89;57.15;98417.34;4943745;28;114018;-72
2022/11/15 01:39:26;;;;;;;2.60;2.00;;;12.40;91.20;;;12.87;57.21;98416.88;4943490;28;123322;-73
2022/11/15 01:41:53;;;;;;;3.30;2.10;;;12.40;91.20;;;12.85;57.43;98416.41;4944786;28;122869;-72
2022/11/15 01:44:42;;;;;;;4.37;2.70;;;12.40;91.20;;;12.84;57.21;98417.53;4942904;28;114353;-72
2022/11/15 01:47:19;;;;;;;3.03;2.23;;;12.40;91.30;;;12.80;57.47;98419.38;4940300;28;114196;-73
2022/11/15 01:50:02;;;;;;;2.53;2.33;;;12.30;91.20;;;12.77;57.38;98414.50;4954787;28;124470;-72
2022/11/15 01:52:32;;;;;;;3.90;2.50;;;12.30;91.30;;;12.72;57.54;98412.72;4968705;28;123016;-72
2022/11/15 01:55:23;;;;;;;3.10;2.43;;;12.30;91.30;;;12.70;57.66;98411.44;4966212;28;115595;-73
2022/11/15 01:57:56;;;;;;;3.00;2.10;;;12.30;91.30;;;12.67;57.71;98415.69;4970659;28;115159;-72
2022/11/15 02:00:23;;;;;;;4.90;2.50;;;12.40;91.40;;;12.64;57.88;98413.59;4970787;28;124501;-72
2022/11/15 02:02:53;;;;;;;3.93;2.70;;;12.20;91.30;;;12.62;57.86;98404.78;4965370;28;123070;-72
2022/11/15 02:05:19;;;;;;;4.80;2.50;;;12.20;91.40;;;12.60;58.17;98410.69;4963924;28;114623;-74
2022/11/15 02:07:47;;;;;;;3.97;2.77;;;12.20;91.40;;;12.59;58.15;98402.69;4965943;28;114546;-73
2022/11/15 02:10:24;;;;;;;3.60;3.10;;;12.20;91.50;;;12.58;57.96;98393.59;4977343;28;124202;-72
2022/11/15 02:12:53;;;;;;;4.73;3.17;;;12.10;91.50;;;12.56;58.08;98397.84;4970403;28;123845;-73
2022/11/15 02:15:20;;;;;;;3.70;2.50;;;12.10;91.50;;;12.57;58.34;98402.22;4970008;28;114207;-72
2022/11/15 02:18:18;;;;;;;4.30;3.17;;;12.20;91.60;;;12.54;58.17;98394.59;4967679;28;113868;-73
2022/11/15 02:20:55;;;;;;;4.70;2.70;;;12.10;91.60;;;12.53;58.36;98392.97;4969808;28;123627;-73
2022/11/15 02:23:36;;;;;;;5.20;3.23;;;12.20;91.70;;;12.51;58.49;98393.28;4970204;28;122851;-73
2022/11/15 02:26:09;;;;;;;6.90;2.60;;;12.10;91.70;;;12.49;58.62;98389.22;4967966;28;114224;-73
2022/11/15 02:29:08;;;;;;;5.13;3.07;;;12.10;91.70;;;12.50;58.48;98382.56;4969487;28;114157;-73
2022/11/15 02:32:06;;;;;;;3.10;2.43;;;12.10;91.70;;;12.45;58.61;98377.22;4969018;28;124033;-73
2022/11/15 02:35:07;;;;;;;3.33;2.40;;;12.00;91.80;;;12.43;58.75;98376.72;4968949;28;122924;-73
2022/11/15 02:37:50;;;;;;;3.97;2.77;;;12.00;91.80;;;12.41;58.70;98367.94;4963201;28;114368;-73
2022/11/15 02:40:30;;;;;;;3.30;2.20;;;12.00;91.80;;;12.38;58.89;98378.56;4971590;28;113764;-72
2022/11/15 02:46:22;;;;;;;4.43;2.57;;;11.90;91.90;;;12.35;58.86;98361.78;4971620;28;124876;-73
2022/11/15 02:48:50;;;;;;;4.97;2.70;;;11.90;91.90;;;12.32;58.74;98363.25;4969640;28;116725;-73
2022/11/15 02:51:17;;;;;;;3.70;2.67;;;11.90;91.90;;;12.32;59.13;98360.47;4969809;28;114878;-73
2022/11/15 02:53:44;;;;;;;3.20;2.10;;;11.90;91.90;;;12.32;58.86;98352.16;4965286;28;124123;-74
2022/11/15 02:56:12;;;;;;;2.50;2.30;;;11.90;91.90;;;12.32;58.95;98352.16;4970245;28;124042;-72
2022/11/15 02:59:27;;;;;;;3.23;2.50;;;11.90;92.00;;;12.32;58.77;98356.91;4982335;28;114543;-72
2022/11/15 03:02:18;;;;;;;3.10;2.70;;;11.90;92.00;;;12.30;58.81;98348.91;4965267;28;113966;-72
2022/11/15 03:04:56;;;;;;;3.20;2.10;;;11.90;92.00;;;12.28;58.86;98345.69;4971177;28;123311;-72
2022/11/15 03:07:36;;;;;;;5.37;2.50;;;11.80;91.90;;;12.28;58.80;98340.16;4968927;28;124365;-73
2022/11/15 03:10:06;;;;;;;3.30;2.50;;;11.80;91.90;;;12.26;58.79;98342.44;4968929;28;114258;-72
2022/11/15 03:12:37;;;;;;;4.13;2.30;;;11.80;91.90;;;12.25;58.81;98340.81;4968334;28;114039;-74
2022/11/15 03:15:19;;;;;;;5.30;2.43;;;11.80;91.90;;;12.25;58.77;98346.38;4971827;28;123830;-72
2022/11/15 03:18:25;;;;;;;3.60;2.43;;;11.80;91.90;;;12.22;58.46;98335.94;4970358;28;124500;-73
2022/11/15 03:20:52;;;;;;;2.80;2.20;;;11.80;91.90;;;12.21;58.62;98339.06;4970424;28;114470;-73
2022/11/15 03:23:18;;;;;;;6.63;2.60;;;11.80;91.90;;;12.21;58.73;98339.06;4968095;28;113262;-73
2022/11/15 03:25:50;;;;;;;3.23;2.20;;;11.80;91.90;;;12.21;58.60;98336.28;4968493;28;124618;-72
2022/11/15 03:28:25;;;;;;;2.07;1.80;;;11.80;91.90;;;12.21;59.00;98333.50;4968362;28;124104;-72
2022/11/15 03:30:54;;;;;;;2.70;2.10;;;11.80;91.90;;;12.17;58.75;98330.59;4970880;28;114464;-73
2022/11/15 03:33:22;;;;;;;5.10;2.50;;;11.70;91.80;;;12.16;58.82;98327.00;4969405;28;113973;-73
2022/11/15 03:35:49;;;;;;;3.30;2.20;;;11.70;91.90;;;12.15;58.89;98336.47;4969024;28;124562;-72
2022/11/15 03:38:25;;;;;;;3.27;2.10;;;11.70;91.90;;;12.18;58.85;98335.00;4966959;28;123146;-72
2022/11/15 03:41:00;;;;;;;6.30;2.50;;;11.70;91.90;;;12.18;58.81;98323.09;4952115;28;113903;-72
2022/11/15 03:43:59;;;;;;;3.93;2.43;;;11.70;91.90;;;12.16;58.66;98312.34;4967221;28;115198;-72
2022/11/15 03:46:35;;;;;;;3.10;2.43;;;11.70;91.90;;;12.15;58.85;98297.69;4969655;28;123126;-72
2022/11/15 03:49:24;;;;;;;2.80;2.23;;;11.70;91.90;;;12.15;59.13;98313.50;5001364;28;123602;-72
2022/11/15 03:51:50;;;;;;;3.43;2.50;;;11.70;92.00;;;12.12;58.98;98311.41;4970240;28;113816;-72
2022/11/15 03:54:17;;;;;;;2.83;2.20;;;11.70;92.00;;;12.13;58.88;98315.78;4972523;28;114951;-72
2022/11/15 03:56:44;;;;;;;2.93;1.90;;;11.70;92.00;;;12.11;58.97;98318.09;4968819;28;124357;-73
2022/11/15 03:59:11;;;;;;;3.20;2.40;;;11.70;92.00;;;12.12;59.24;98314.19;4969580;28;124264;-72
2022/11/15 04:01:38;;;;;;;3.33;2.03;;;11.70;92.00;;;12.11;58.81;98310.56;4968827;28;114898;-72
2022/11/15 04:04:04;;;;;;;3.73;3.30;;;12.30;92.30;;;12.11;58.75;98304.22;4986542;28;113233;-72
2022/11/15 04:06:31;;;;;;;4.50;2.33;;;11.70;92.00;;;12.09;59.25;98304.59;4968367;28;124310;-72
2022/11/15 04:08:58;;;;;;;3.77;1.90;;;11.60;92.00;;;12.09;58.93;98306.53;4962505;28;124360;-72
2022/11/15 04:11:25;;;;;;;2.47;2.27;;;11.60;92.00;;;12.07;58.87;98311.59;4966548;28;113507;-72
2022/11/15 04:13:51;;;;;;;3.43;2.30;;;11.60;92.00;;;12.07;59.00;98309.66;4968726;28;114081;-72
2022/11/15 04:16:18;;;;;;;2.80;2.20;;;11.60;92.00;;;12.07;58.87;98306.06;4969766;28;123203;-73
2022/11/15 04:18:44;;;;;;;3.40;2.40;;;11.70;92.10;;;12.08;59.00;98302.13;4984447;28;124803;-72
2022/11/15 04:24:13;;;;;;;3.93;2.13;;;11.70;92.10;;;12.07;58.84;98300.53;4971794;28;114477;-73
2022/11/15 04:26:40;;;;;;;3.00;2.20;;;11.60;92.00;;;12.07;59.14;98306.88;4970260;28;124164;-73
2022/11/15 04:31:51;;;;;;;2.97;2.23;;;11.60;92.00;;;12.08;59.26;98315.97;4970295;28;115501;-74
2022/11/15 04:34:18;;;;;;;4.80;1.93;;;11.60;92.10;;;12.07;58.78;98306.88;4966698;28;114997;-73
2022/11/15 04:39:30;;;;;;;2.53;2.20;;;11.60;92.10;;;12.06;59.43;98290.59;4954955;28;124434;-72
2022/11/15 04:41:56;;;;;;;3.60;2.33;;;11.80;92.10;;;12.06;59.22;98283.09;4996789;28;113927;-72
2022/11/15 04:44:22;;;;;;;2.90;2.27;;;11.60;92.10;;;12.07;59.13;98286.69;4968516;28;114003;-73
2022/11/15 04:46:49;;;;;;;2.63;2.10;;;11.60;92.10;;;12.06;59.40;98285.88;4966496;28;124693;-73
2022/11/15 04:49:15;;;;;;;4.43;2.23;;;11.60;92.10;;;12.07;59.34;98283.91;4968031;28;123918;-72
2022/11/15 04:51:42;;;;;;;2.50;1.87;;;11.60;92.10;;;12.06;59.41;98285.88;4967694;28;113989;-72
2022/11/15 04:54:08;;;;;;;3.50;2.40;;;11.60;92.10;;;12.06;59.37;98279.50;4999603;28;113951;-72
2022/11/15 04:56:35;;;;;;;3.20;2.13;;;11.60;92.10;;;12.05;59.16;98275.94;4967315;28;124130;-73
2022/11/15 04:59:03;;;;;;;2.80;2.17;;;11.60;92.20;;;12.04;59.33;98281.81;4969682;28;122551;-72
2022/11/15 05:01:29;;;;;;;3.50;2.30;;;11.60;92.10;;;12.03;59.14;98283.75;4968097;28;114269;-73
2022/11/15 05:06:41;;;;;;;3.80;2.43;;;11.60;92.20;;;12.00;59.30;98280.84;4970663;28;124927;-72
2022/11/15 05:09:07;;;;;;;3.30;2.33;;;11.50;92.10;;;11.99;59.30;98271.75;4966562;28;123856;-72
2022/11/15 05:11:34;;;;;;;2.70;2.40;;;11.50;92.20;;;11.99;59.21;98268.16;4967988;28;114141;-73
2022/11/15 05:14:00;;;;;;;2.33;2.07;;;11.50;92.20;;;11.99;59.39;98262.63;4968399;28;113934;-73
2022/11/15 05:16:27;;;;;;;3.07;2.17;;;11.70;92.20;;;11.99;59.38;98259.84;4966049;28;123770;-72
2022/11/15 05:18:54;;;;;;;2.50;1.83;;;11.50;92.20;;;12.00;59.24;98261.47;4967429;28;122934;-73
2022/11/15 05:21:22;;;;;;;3.40;2.30;;;11.60;92.30;;;11.98;59.80;98252.69;4966208;28;115285;-74
2022/11/15 05:23:49;;;;;;;3.40;1.93;;;11.60;92.30;;;11.98;59.23;98259.03;4965947;28;117227;-73
2022/11/15 05:26:17;;;;;;;3.00;2.13;;;11.50;92.20;;;11.97;59.55;98262.16;4966519;28;124364;-73
2022/11/15 05:28:44;;;;;;;3.53;2.10;;;11.50;92.30;;;11.97;59.49;98259.38;4967069;28;123794;-73
2022/11/15 05:31:15;;;;;;;4.03;2.07;;;11.50;92.30;;;11.97;59.60;98260.19;4967774;28;113360;-73
2022/11/15 05:33:43;;;;;;;3.37;2.20;;;11.60;92.30;;;11.95;59.88;98254.16;5001026;28;113147;-73
2022/11/15 05:36:38;;;;;;;2.87;2.17;;;11.50;92.30;;;11.95;59.44;98254.16;4999191;28;123852;-73
2022/11/15 05:39:06;;;;;;;4.50;2.10;;;11.50;92.30;;;11.93;59.92;98251.75;4971957;28;124285;-73
2022/11/15 05:41:44;;;;;;;5.13;2.50;;;11.50;92.30;;;11.93;59.57;98251.75;4976182;28;114545;-75
2022/11/15 05:44:13;;;;;;;3.57;2.20;;;11.50;92.30;;;11.92;60.08;98244.56;4972146;28;113445;-73
2022/11/15 05:46:42;;;;;;;3.80;2.03;;;11.50;92.40;;;11.92;59.80;98236.25;4966278;28;124105;-72
2022/11/15 05:49:13;;;;;;;4.63;2.37;;;11.50;92.40;;;11.94;59.75;98241.47;4970995;28;124705;-72
2022/11/15 05:51:43;;;;;;;3.40;1.87;;;11.50;92.40;;;11.93;59.97;98234.34;4968789;28;113247;-73
2022/11/15 05:54:11;;;;;;;4.30;2.53;;;11.50;92.40;;;11.93;59.55;98243.44;4961754;28;113654;-73
2022/11/15 05:56:38;;;;;;;5.50;2.67;;;11.50;92.40;;;11.93;59.61;98246.22;4946325;28;123537;-73
2022/11/15 05:59:05;;;;;;;3.90;2.17;;;11.50;92.40;;;11.92;59.64;98244.56;4970038;28;124040;-73
2022/11/15 06:01:31;;;;;;;4.27;2.90;;;11.50;92.40;;;11.92;59.65;98250.09;4968201;28;114341;-73
2022/11/15 06:04:00;;;;;;;3.40;2.20;;;11.40;92.40;;;11.90;59.51;98252.41;4967703;28;113734;-72
2022/11/15 06:06:28;;;;;;;7.23;2.70;;;11.40;92.40;;;11.90;59.90;98246.03;4966413;28;124010;-73
2022/11/15 06:08:56;;;;;;;4.00;2.87;;;11.40;92.70;;;11.88;59.58;98251.13;4967482;28;123762;-73
2022/11/15 06:11:22;;;;;;;3.27;2.70;;;11.50;92.50;;;11.88;59.65;98246.41;4966993;28;115370;-72
2022/11/15 06:13:49;;;;;;;5.60;2.67;;;11.40;92.40;;;11.88;59.40;98245.59;4968475;28;116630;-73
2022/11/15 06:16:15;;;;;;;2.67;2.23;;;11.40;92.40;;;11.89;59.66;98255.50;4967287;28;124131;-71
2022/11/15 06:18:42;;;;;;;2.83;2.53;;;11.40;92.40;;;11.89;59.69;98255.50;4963342;28;124980;-72
2022/11/15 06:21:09;;;;;;;5.67;2.73;;;11.40;92.40;;;11.89;59.82;98248.00;4954383;28;115991;-73
2022/11/15 06:23:35;;;;;;;7.87;3.73;;;11.40;92.50;;;11.89;59.69;98250.78;4960125;28;113674;-75
2022/11/15 06:26:03;;;;;;;3.00;2.40;;;11.40;92.50;;;11.90;59.91;98252.41;4965765;28;123936;-75
2022/11/15 06:28:31;;;;;;;4.10;2.50;;;11.40;92.50;;;11.91;59.75;98253.22;4965864;28;124097;-75
2022/11/15 06:31:06;;;;;;;3.00;2.30;;;11.50;92.50;;;11.93;59.89;98248.16;4957900;28;114354;-75
2022/11/15 06:33:33;;;;;;;3.50;2.30;;;11.50;92.50;;;11.93;60.10;98250.94;4952730;28;112916;-76
2022/11/15 06:36:17;;;;;;;4.70;2.87;;;11.40;92.50;;;11.96;59.94;98255.00;4963381;28;125255;-76
2022/11/15 06:38:45;;;;;;;9.40;3.33;;;11.50;92.60;;;11.93;60.10;98257.28;4951848;28;123911;-75
2022/11/15 06:41:13;;;;;;;5.73;3.83;;;12.70;93.10;;;11.93;60.04;98251.75;4962585;28;114209;-76
2022/11/15 06:43:40;;;;;;;7.40;3.40;;;11.50;92.60;;;11.94;60.04;98249.78;4956182;28;113149;-75
2022/11/15 06:46:09;;;;;;;4.47;2.90;;;11.50;92.60;;;11.94;59.94;98258.91;4968732;28;124250;-75
2022/11/15 06:48:36;;;;;;;14.80;4.90;;;11.60;92.70;;;11.98;61.14;98258.22;4968102;28;124070;-75
2022/11/15 06:51:04;;;;;;;5.70;3.73;;;11.50;93.20;;;12.04;61.39;98252.16;5001574;28;114462;-76
2022/11/15 06:53:31;;;;;;;6.70;3.20;;;11.50;93.50;;;12.12;62.09;98264.34;5003097;28;113770;-75
2022/11/15 06:56:03;;;;;;;11.50;4.20;;;11.50;93.80;;;12.18;62.39;98268.53;4969929;28;124696;-77
2022/11/15 06:58:30;;;;;;;5.17;3.23;;;11.60;94.00;;;12.23;62.13;98265.56;4971652;28;123473;-76
2022/11/15 07:01:06;;;;;;;11.90;3.63;;;11.60;94.10;;;12.32;62.69;98269.06;4971698;28;115291;-75
2022/11/15 07:03:36;;;;;;;6.10;3.60;;;11.70;94.30;;;12.38;62.28;98273.28;4967567;28;115016;-77
2022/11/15 07:06:03;;;;;;;6.80;3.83;;;12.00;94.50;;;12.42;61.85;98273.41;4968172;28;124131;-76
2022/11/15 07:08:29;;;;;;;5.20;3.30;;;11.80;94.20;;;12.43;61.35;98276.97;4965782;28;123959;-75
2022/11/15 07:11:02;;;;;;;5.97;3.37;;;11.80;94.00;;;12.41;60.96;98270.97;4968539;28;114468;-75
2022/11/15 07:13:33;;;;;;;6.10;3.30;;;11.80;93.80;;;12.38;60.57;98267.75;4999902;28;113653;-74
2022/11/15 07:16:09;;;;;;;3.50;2.70;;;11.80;93.60;;;12.38;60.51;98262.19;4969019;28;124007;-74
2022/11/15 07:18:38;;;;;;;13.80;2.53;;;11.80;93.40;;;12.35;60.40;98273.94;4967305;28;123702;-75
2022/11/15 07:21:08;;;;;;;5.27;3.00;;;11.80;93.20;;;12.34;59.87;98269.53;4967717;28;114121;-78
2022/11/15 07:23:39;;;;;;;4.23;2.87;;;11.80;93.10;;;12.34;59.64;98269.53;4964593;28;114213;-76
2022/11/15 07:26:07;;;;;;;5.40;2.90;;;11.80;92.90;;;12.34;59.53;98274.28;4999313;28;123819;-76
2022/11/15 07:28:34;;;;;;;6.07;2.73;;;11.90;92.90;;;12.34;59.37;98271.50;4952239;28;124017;-75
2022/11/15 07:31:06;;;;;;;3.00;2.30;;;11.50;92.60;;;12.38;59.02;98267.75;4959976;28;114483;-76
2022/11/15 07:33:33;;;;;;;4.30;2.43;;;11.80;92.90;;;12.40;58.89;98272.94;4966817;28;113861;-76
2022/11/15 07:36:02;;;;;;;4.20;2.70;;;11.90;92.60;;;12.44;58.94;98270.28;4968018;28;124001;-75
2022/11/15 07:38:32;;;;;;;2.63;2.33;;;11.90;92.50;;;12.46;58.36;98268.78;4958213;28;124416;-75
2022/11/15 07:41:02;;;;;;;3.63;2.50;;;11.90;92.40;;;12.49;58.59;98268.16;4943851;28;114502;-75
2022/11/15 07:43:30;;;;;;;3.87;2.27;;;11.90;92.30;;;12.54;58.47;98270.69;4970512;28;113905;-75
2022/11/15 07:45:56;;;;;;;4.77;2.97;;;12.00;92.30;;;12.60;58.30;98258.28;4962809;28;123861;-77
2022/11/15 07:48:23;;;;;;;5.43;2.80;;;12.10;92.20;;;12.68;58.06;98251.03;4969884;28;124276;-76
2022/11/15 07:50:50;;;;;;;4.27;2.40;;;12.10;92.10;;;12.73;57.84;98256.34;4968542;28;115638;-76
2022/11/15 07:53:17;;;;;;;4.70;3.20;;;12.10;92.00;;;12.79;57.53;98260.53;4967792;28;115044;-76
2022/11/15 07:55:43;;;;;;;3.30;2.43;;;12.20;92.00;;;12.86;57.67;98248.09;4968635;28;123277;-76
2022/11/15 07:58:11;;;;;;;4.20;2.70;;;12.20;91.90;;;12.90;57.69;98251.81;4968471;28;124465;-77
2022/11/15 08:00:38;;;;;;;4.33;3.17;;;12.30;92.00;;;12.93;57.54;98243.59;4970740;28;114118;-76
2022/11/15 08:03:15;;;;;;;6.13;2.73;;;12.30;92.00;;;12.99;57.32;98241.44;4971135;28;114279;-76
2022/11/15 08:05:43;;;;;;;6.33;3.13;;;12.40;91.90;;;13.05;57.42;98237.28;4967699;28;124027;-75
2022/11/15 08:08:11;;;;;;;5.40;2.97;;;12.40;91.90;;;13.09;57.12;98241.00;4968143;28;124265;-75
2022/11/15 08:10:37;;;;;;;4.93;3.03;;;12.50;91.70;;;13.10;56.87;98242.59;4968412;28;114963;-76
2022/11/15 08:13:08;;;;;;;3.80;2.47;;;12.50;91.60;;;13.13;56.70;98244.69;4968502;28;114062;-77
2022/11/15 08:15:36;;;;;;;5.20;2.63;;;12.50;91.40;;;13.19;56.66;98237.78;4966110;28;123794;-77
2022/11/15 08:18:14;;;;;;;5.83;3.07;;;12.60;91.40;;;13.24;56.40;98226.47;4970015;28;122652;-78
2022/11/15 08:20:41;;;;;;;10.70;3.50;;;12.70;91.40;;;13.31;56.34;98228.69;4966690;28;113238;-74
2022/11/15 08:23:13;;;;;;;5.87;3.50;;;12.70;91.40;;;13.36;56.57;98230.44;4962700;28;113709;-76
2022/11/15 08:25:39;;;;;;;6.03;3.30;;;12.80;91.40;;;13.39;56.72;98222.25;4965198;28;123937;-75
2022/11/15 08:28:09;;;;;;;5.13;3.20;;;12.80;91.50;;;13.43;56.77;98223.19;4967857;28;123942;-74
2022/11/15 08:30:41;;;;;;;6.70;3.87;;;12.90;91.60;;;13.49;56.99;98220.97;4970806;28;115360;-75
2022/11/15 08:33:12;;;;;;;7.90;4.80;;;12.90;91.60;;;13.53;56.54;98221.09;4971013;28;114006;-76
2022/11/15 08:35:41;;;;;;;6.50;4.23;;;13.10;91.70;;;13.55;56.93;98211.25;4969769;28;123468;-79
2022/11/15 08:38:08;;;;;;;7.20;4.40;;;13.00;91.70;;;13.59;56.86;98212.19;4966044;28;123061;-77
2022/11/15 08:40:35;;;;;;;8.50;4.63;;;13.00;91.70;;;13.63;56.96;98204.78;4960945;28;115065;-76
2022/11/15 08:43:02;;;;;;;8.10;4.50;;;13.00;91.70;;;13.68;56.93;98207.34;4975756;28;115262;-76
2022/11/15 08:45:30;;;;;;;11.13;5.30;;;13.10;91.70;;;13.72;56.88;98199.09;4973859;28;124387;-75
2022/11/15 08:47:57;;;;;;;10.57;5.17;;;13.10;91.70;;;13.75;56.78;98200.38;4968130;28;124051;-75
2022/11/15 08:50:24;;;;;;;15.20;5.73;;;13.20;91.70;;;13.77;56.69;98186.97;4974908;28;114221;-76
2022/11/15 08:52:50;;;;;;;13.60;6.07;;;13.20;91.60;;;13.80;56.65;98180.72;4963621;28;115180;-74
2022/11/15 08:55:17;;;;;;;12.10;6.40;;;13.20;91.60;;;13.82;56.57;98195.06;4959787;28;124296;-74
2022/11/15 08:57:43;;;;;;;13.57;5.90;;;13.20;91.60;;;13.83;56.60;98188.34;4974352;28;123911;-75
2022/11/15 09:00:12;;;;;;;14.33;5.77;;;13.20;91.50;;;13.85;56.44;98180.47;4968796;28;114374;-75
2022/11/15 09:02:39;;;;;;;13.20;4.97;;;13.20;91.50;;;13.85;56.44;98183.25;4965410;28;114147;-76
2022/11/15 09:05:07;;;;;;;11.27;4.80;;;13.30;91.50;;;13.88;56.38;98188.09;4966315;28;123984;-76
2022/11/15 09:07:33;;;;;;;11.50;5.40;;;13.30;91.50;;;13.92;56.14;98178.72;4969813;28;123659;-74
2022/11/15 09:10:00;;;;;;;8.80;5.00;;;13.30;91.40;;;13.96;56.33;98181.59;4966702;28;114302;-76
2022/11/15 09:12:26;;;;;;;9.87;5.00;;;13.40;91.40;;;14.02;56.18;98187.72;4977864;28;113748;-73
2022/11/15 09:14:53;;;;;;;11.07;4.70;;;13.70;91.60;;;14.09;56.19;98180.44;4967225;28;123667;-77
2022/11/15 09:17:19;;;;;;;10.40;4.63;;;13.50;91.40;;;14.13;55.93;98178.56;4967042;28;123984;-74
2022/11/15 09:19:46;;;;;;;12.10;5.03;;;13.50;91.30;;;14.15;55.67;98176.22;4969707;28;114244;-77
2022/11/15 09:22:13;;;;;;;10.30;4.77;;;13.70;91.30;;;14.19;55.60;98170.81;4967908;28;114352;-77
2022/11/15 09:24:39;;;;;;;15.13;5.30;;;13.60;91.20;;;14.23;55.42;98177.25;4965188;28;124215;-78
2022/11/15 09:27:06;;;;;;;9.73;4.17;;;13.60;91.00;;;14.28;55.21;98170.66;4968928;28;123838;-75
2022/11/15 09:29:33;;;;;;;13.77;5.43;;;13.70;91.00;;;14.31;55.19;98172.72;4954867;28;115277;-75
2022/11/15 09:32:00;;;;;;;15.13;5.03;;;13.70;91.00;;;14.33;54.95;98175.97;4963497;28;115656;-75
2022/11/15 09:34:26;;;;;;;11.43;4.90;;;13.10;90.50;;;14.36;54.95;98173.28;4966325;28;124132;-75
2022/11/15 09:36:53;;;;;;;9.37;4.43;;;13.80;90.80;;;14.42;54.83;98171.06;4969380;28;124036;-75
2022/11/15 09:39:19;;;;;;;6.37;3.83;;;13.80;90.70;;;14.47;54.72;98165.25;4985557;28;113338;-75
2022/11/15 09:42:18;;;;;;;13.50;6.53;;;13.90;90.70;;;14.51;54.58;98171.72;4967844;28;113753;-77
2022/11/15 09:45:33;;;;;;;8.00;4.43;;;13.90;90.60;;;14.61;54.55;98169.63;4957491;28;124013;-74
2022/11/15 09:48:35;;;;;;;7.77;4.77;;;14.00;90.70;;;14.70;54.59;98159.16;4951078;28;123645;-76
2022/11/15 09:51:04;;;;;;;9.73;4.27;;;14.10;90.60;;;14.79;54.28;98155.03;4983067;28;114459;-75
2022/11/15 09:54:05;;;;;;;7.47;4.20;;;14.20;90.50;;;14.90;54.00;98155.31;4946369;28;113822;-75
2022/11/15 09:56:36;;;;;;;8.87;4.17;;;14.30;90.50;;;15.05;53.81;98155.72;4967038;28;123435;-76
2022/11/15 09:59:36;;;;;;;8.40;4.27;;;14.40;90.40;;;15.16;53.51;98156.78;4960375;28;122934;-75
2022/11/15 10:02:57;;;;;;;11.37;3.97;;;14.50;90.30;;;15.29;53.50;98155.53;4960230;28;114244;-75
2022/11/15 10:05:25;;;;;;;8.03;3.27;;;14.60;90.20;;;15.39;53.34;98146.66;4971753;28;114538;-75
2022/11/15 10:07:57;;;;;;;8.30;4.47;;;14.80;90.20;;;15.48;52.75;98140.88;4966364;28;123173;-75
2022/11/15 10:10:36;;;;;;;6.20;3.97;;;14.80;90.00;;;15.54;52.69;98138.63;4969435;28;123869;-75
2022/11/15 10:13:04;;;;;;;13.33;4.30;;;14.90;89.80;;;15.60;52.55;98134.41;4968944;28;113792;-76
2022/11/15 10:15:34;;;;;;;10.93;4.10;;;15.00;89.70;;;15.67;52.59;98131.78;4966984;28;114233;-77
2022/11/15 10:18:46;;;;;;;11.03;4.67;;;15.00;89.60;;;15.74;52.01;98129.16;4970151;28;123100;-75
2022/11/15 10:21:32;;;;;;;10.43;4.23;;;15.10;89.40;;;15.80;52.07;98133.31;4941002;28;124151;-76
2022/11/15 10:23:59;;;;;;;9.30;4.57;;;15.20;89.20;;;15.83;51.84;98124.22;4942463;28;114481;-76
2022/11/15 10:26:25;;;;;;;10.40;4.40;;;15.20;89.00;;;15.86;51.76;98122.69;4969114;28;114700;-75
2022/11/15 10:28:52;;;;;;;11.50;5.03;;;15.30;88.70;;;15.89;51.78;98116.38;4969133;28;124253;-74
2022/11/15 10:31:28;;;;;;;8.00;4.00;;;15.30;88.50;;;15.95;51.51;98114.13;4969996;28;124049;-74
2022/11/15 10:34:18;;;;;;;8.30;4.73;;;15.40;88.40;;;15.97;51.27;98107.00;4983805;28;113297;-76
2022/11/15 10:36:53;;;;;;;6.43;4.03;;;15.40;88.10;;;16.00;51.36;98105.47;4998448;28;113936;-77
2022/11/15 10:39:20;;;;;;;9.87;4.00;;;15.40;88.10;;;15.99;51.05;98104.66;4968137;28;124471;-75
2022/11/15 10:41:46;;;;;;;11.30;4.53;;;15.40;87.80;;;15.97;50.68;98106.22;4970737;28;123960;-76
2022/11/15 10:44:16;;;;;;;9.80;3.70;;;15.40;87.10;;;15.92;51.08;98100.91;4969841;28;114440;-76